createdAt,value
2022-10-19T00:05:29.719Z,52.13
2022-10-19T00:15:31.112Z,52.20
2022-10-19T00:25:32.474Z,52.28
2022-10-19T00:35:33.980Z,52.46
2022-10-19T00:45:35.348Z,52.61
2022-10-19T00:55:37.205Z,52.56
2022-10-19T01:05:38.634Z,52.65
2022-10-19T01:16:00.297Z,52.72
2022-10-19T01:26:15.305Z,52.56
2022-10-19T01:36:38.120Z,52.79
2022-10-19T01:46:40.649Z,52.63
2022-10-19T01:56:43.108Z,52.82
2022-10-19T02:06:44.498Z,52.73
2022-10-19T02:16:51.186Z,52.73
2022-10-19T02:26:52.703Z,52.67
2022-10-19T02:36:54.565Z,52.38
2022-10-19T02:47:02.400Z,52.79
2022-10-19T02:57:15.038Z,53.29
2022-10-19T03:07:18.088Z,53.22
2022-10-19T03:17:19.528Z,53.81
2022-10-19T03:27:21.022Z,53.27
2022-10-19T03:37:22.429Z,53.32
2022-10-19T03:47:23.829Z,53.29
2022-10-19T03:57:25.226Z,53.58
2022-10-19T04:07:26.591Z,53.57
2022-10-19T04:17:27.957Z,53.73
2022-10-19T04:27:29.338Z,53.45
2022-10-19T04:37:30.924Z,53.52
2022-10-19T04:47:32.838Z,53.39
2022-10-19T04:57:34.758Z,53.11
2022-10-19T05:07:36.689Z,53.10
2022-10-19T05:17:38.124Z,53.47
2022-10-19T05:27:39.511Z,53.51
2022-10-19T05:37:40.888Z,53.43
2022-10-19T05:47:42.284Z,52.73
2022-10-19T05:57:44.046Z,53.21
2022-10-19T06:07:45.695Z,53.90
2022-10-19T06:17:47.149Z,53.22
2022-10-19T06:27:48.573Z,53.43
2022-10-19T06:37:50.054Z,53.52
2022-10-19T06:47:51.846Z,53.42
2022-10-19T06:57:53.234Z,53.59
2022-10-19T07:07:54.777Z,53.56
2022-10-19T07:17:56.208Z,51.98
2022-10-19T07:27:57.581Z,49.58
2022-10-19T07:37:59.056Z,46.94
2022-10-19T07:48:00.459Z,44.99
2022-10-19T07:58:01.965Z,44.00
2022-10-19T08:08:03.593Z,43.31
2022-10-19T08:18:05.026Z,41.88
2022-10-19T08:28:06.542Z,41.04
2022-10-19T08:38:07.917Z,40.51
2022-10-19T08:48:24.259Z,40.55
2022-10-19T08:58:51.071Z,39.71
2022-10-19T09:08:53.599Z,38.91
2022-10-19T09:29:03.343Z,34.76
2022-10-19T09:39:04.812Z,32.96
2022-10-19T09:49:06.200Z,37.87
2022-10-19T09:59:19.893Z,40.08
2022-10-19T10:09:26.239Z,41.27
2022-10-19T10:19:28.886Z,40.49
2022-10-19T10:29:34.407Z,40.20
2022-10-19T10:39:40.913Z,39.89
2022-10-19T10:49:45.088Z,40.12
2022-10-19T11:00:11.089Z,40.52
2022-10-19T11:10:27.031Z,41.03
2022-10-19T11:20:30.028Z,41.44
2022-10-19T11:30:33.299Z,41.81
2022-10-19T11:40:49.740Z,41.88
2022-10-19T11:51:22.016Z,41.79
2022-10-19T12:01:29.558Z,42.34
2022-10-19T12:11:56.079Z,41.08
2022-10-19T12:22:01.765Z,41.29
2022-10-19T12:32:03.217Z,40.62
2022-10-19T12:42:24.855Z,40.08
2022-10-19T12:52:38.476Z,41.05
2022-10-19T13:02:40.102Z,40.66
2022-10-19T13:12:44.121Z,41.52
2022-10-19T13:22:46.249Z,41.54
2022-10-19T13:32:47.686Z,41.44
2022-10-19T13:42:57.867Z,42.27
2022-10-19T13:53:05.953Z,42.54
2022-10-19T14:03:20.906Z,43.31
2022-10-19T14:13:22.335Z,43.18
2022-10-19T14:23:25.741Z,42.88
2022-10-19T14:33:28.441Z,43.49
2022-10-19T14:43:31.772Z,43.53
2022-10-19T14:53:36.045Z,44.19
2022-10-19T15:03:42.812Z,44.39
2022-10-19T15:13:45.451Z,45.04
2022-10-19T15:23:50.704Z,45.05
2022-10-19T15:33:57.122Z,45.79
2022-10-19T15:44:00.316Z,46.10
2022-10-19T15:54:03.944Z,45.51
2022-10-19T16:04:05.521Z,45.94
2022-10-19T16:14:07.194Z,45.99
2022-10-19T16:24:08.669Z,45.72
2022-10-19T16:34:10.045Z,45.77
2022-10-19T16:44:12.249Z,46.14
2022-10-19T16:54:14.938Z,46.21
2022-10-19T17:04:17.894Z,46.78
2022-10-19T17:14:19.342Z,47.42
2022-10-19T17:24:22.378Z,47.11
2022-10-19T17:34:23.797Z,47.50
2022-10-19T17:44:25.178Z,47.51
2022-10-19T17:54:26.669Z,48.11
2022-10-19T18:04:28.168Z,48.12
2022-10-19T18:14:29.742Z,48.16
2022-10-19T18:24:32.851Z,48.41
2022-10-19T18:34:34.493Z,48.67
2022-10-19T18:44:35.861Z,48.95
2022-10-19T18:54:37.286Z,48.75
2022-10-19T19:04:38.759Z,48.99
2022-10-19T19:14:41.823Z,49.21
2022-10-19T19:24:43.818Z,49.33
2022-10-19T19:34:45.219Z,49.59
2022-10-19T19:44:46.649Z,49.88
2022-10-19T19:54:48.622Z,50.23
2022-10-19T20:04:50.133Z,50.25
2022-10-19T20:14:51.678Z,50.55
2022-10-19T20:24:53.604Z,50.76
2022-10-19T20:34:55.604Z,50.80
2022-10-19T20:44:56.994Z,51.06
2022-10-19T20:54:58.382Z,51.44
2022-10-19T21:04:59.787Z,51.65
2022-10-19T21:15:01.193Z,51.59
2022-10-19T21:25:02.612Z,51.84
2022-10-19T21:35:05.767Z,52.19
2022-10-19T21:45:25.725Z,52.47
2022-10-19T21:55:33.285Z,52.64
2022-10-19T22:05:34.666Z,53.00
2022-10-19T22:15:39.917Z,53.03
2022-10-19T22:25:41.286Z,53.19
2022-10-19T22:35:42.662Z,53.28
2022-10-19T22:45:47.628Z,53.24
2022-10-19T22:55:49.000Z,53.47
2022-10-19T23:05:50.381Z,53.68
2022-10-19T23:15:51.870Z,53.95
2022-10-19T23:26:06.483Z,53.95
2022-10-19T23:36:19.908Z,54.00
2022-10-19T23:46:21.393Z,54.04
2022-10-19T23:56:24.259Z,53.81
